sensor_id;sensor_type;location;lat;lon;timestamp;P1;durP1;ratioP1;P2;durP2;ratioP2
25497;SDS011;13406;53.380;7.226;2023-07-20T00:00:26;1.80;;;1.10;;
25497;SDS011;13406;53.380;7.226;2023-07-20T00:02:51;2.83;;;0.87;;
25497;SDS011;13406;53.380;7.226;2023-07-20T00:05:17;1.20;;;0.70;;
25497;SDS011;13406;53.380;7.226;2023-07-20T00:07:49;2.37;;;1.10;;
25497;SDS011;13406;53.380;7.226;2023-07-20T00:10:17;2.13;;;0.80;;
25497;SDS011;13406;53.380;7.226;2023-07-20T00:12:42;2.00;;;1.23;;
25497;SDS011;13406;53.380;7.226;2023-07-20T00:15:12;1.90;;;0.90;;
25497;SDS011;13406;53.380;7.226;2023-07-20T00:17:38;2.13;;;1.00;;
25497;SDS011;13406;53.380;7.226;2023-07-20T00:20:05;2.63;;;1.07;;
25497;SDS011;13406;53.380;7.226;2023-07-20T00:22:31;1.27;;;0.67;;
25497;SDS011;13406;53.380;7.226;2023-07-20T00:24:57;1.27;;;0.90;;
25497;SDS011;13406;53.380;7.226;2023-07-20T00:27:22;1.17;;;0.80;;
25497;SDS011;13406;53.380;7.226;2023-07-20T00:29:47;1.60;;;0.90;;
25497;SDS011;13406;53.380;7.226;2023-07-20T00:32:13;2.73;;;1.03;;
25497;SDS011;13406;53.380;7.226;2023-07-20T00:34:39;0.90;;;0.70;;
25497;SDS011;13406;53.380;7.226;2023-07-20T00:37:04;1.43;;;0.87;;
25497;SDS011;13406;53.380;7.226;2023-07-20T00:39:29;1.30;;;0.90;;
25497;SDS011;13406;53.380;7.226;2023-07-20T00:41:55;2.27;;;1.10;;
25497;SDS011;13406;53.380;7.226;2023-07-20T00:44:20;1.50;;;1.00;;
25497;SDS011;13406;53.380;7.226;2023-07-20T00:46:46;2.27;;;1.00;;
25497;SDS011;13406;53.380;7.226;2023-07-20T00:49:12;1.70;;;1.00;;
25497;SDS011;13406;53.380;7.226;2023-07-20T00:51:37;1.30;;;0.80;;
25497;SDS011;13406;53.380;7.226;2023-07-20T00:54:04;1.30;;;0.93;;
25497;SDS011;13406;53.380;7.226;2023-07-20T00:56:30;1.20;;;0.80;;
25497;SDS011;13406;53.380;7.226;2023-07-20T00:58:55;2.00;;;0.70;;
25497;SDS011;13406;53.380;7.226;2023-07-20T01:01:21;1.30;;;0.70;;
25497;SDS011;13406;53.380;7.226;2023-07-20T01:03:47;2.50;;;0.97;;
25497;SDS011;13406;53.380;7.226;2023-07-20T01:08:52;1.93;;;0.80;;
25497;SDS011;13406;53.380;7.226;2023-07-20T01:14:22;2.00;;;0.80;;
25497;SDS011;13406;53.380;7.226;2023-07-20T01:16:49;1.30;;;0.83;;
25497;SDS011;13406;53.380;7.226;2023-07-20T01:19:17;2.00;;;1.00;;
25497;SDS011;13406;53.380;7.226;2023-07-20T01:32:33;1.80;;;0.80;;
25497;SDS011;13406;53.380;7.226;2023-07-20T01:35:01;1.43;;;0.80;;
25497;SDS011;13406;53.380;7.226;2023-07-20T01:37:28;1.10;;;0.73;;
25497;SDS011;13406;53.380;7.226;2023-07-20T01:39:56;1.40;;;0.80;;
25497;SDS011;13406;53.380;7.226;2023-07-20T01:42:22;1.17;;;0.73;;
25497;SDS011;13406;53.380;7.226;2023-07-20T01:44:52;1.10;;;0.80;;
25497;SDS011;13406;53.380;7.226;2023-07-20T01:47:18;2.30;;;0.70;;
25497;SDS011;13406;53.380;7.226;2023-07-20T01:49:44;1.40;;;0.87;;
25497;SDS011;13406;53.380;7.226;2023-07-20T01:52:09;1.80;;;0.97;;
25497;SDS011;13406;53.380;7.226;2023-07-20T01:54:35;1.27;;;0.70;;
25497;SDS011;13406;53.380;7.226;2023-07-20T01:57:00;1.20;;;0.70;;
25497;SDS011;13406;53.380;7.226;2023-07-20T01:59:26;2.33;;;0.90;;
25497;SDS011;13406;53.380;7.226;2023-07-20T02:01:52;1.00;;;0.70;;
25497;SDS011;13406;53.380;7.226;2023-07-20T02:04:17;1.20;;;0.80;;
25497;SDS011;13406;53.380;7.226;2023-07-20T02:06:43;1.47;;;0.70;;
25497;SDS011;13406;53.380;7.226;2023-07-20T02:09:08;1.50;;;0.80;;
25497;SDS011;13406;53.380;7.226;2023-07-20T02:11:33;0.97;;;0.70;;
25497;SDS011;13406;53.380;7.226;2023-07-20T02:13:59;1.30;;;0.80;;
25497;SDS011;13406;53.380;7.226;2023-07-20T02:16:24;1.60;;;0.80;;
25497;SDS011;13406;53.380;7.226;2023-07-20T02:18:50;2.20;;;0.90;;
25497;SDS011;13406;53.380;7.226;2023-07-20T02:21:15;1.57;;;0.80;;
25497;SDS011;13406;53.380;7.226;2023-07-20T02:23:41;1.47;;;0.80;;
25497;SDS011;13406;53.380;7.226;2023-07-20T02:26:06;1.10;;;0.70;;
25497;SDS011;13406;53.380;7.226;2023-07-20T02:28:32;2.10;;;1.00;;
25497;SDS011;13406;53.380;7.226;2023-07-20T02:30:57;2.80;;;1.00;;
25497;SDS011;13406;53.380;7.226;2023-07-20T02:33:22;2.20;;;0.80;;
25497;SDS011;13406;53.380;7.226;2023-07-20T02:35:48;2.07;;;0.80;;
25497;SDS011;13406;53.380;7.226;2023-07-20T02:38:14;1.30;;;0.80;;
25497;SDS011;13406;53.380;7.226;2023-07-20T02:40:39;3.87;;;0.70;;
25497;SDS011;13406;53.380;7.226;2023-07-20T02:43:05;1.20;;;0.83;;
25497;SDS011;13406;53.380;7.226;2023-07-20T02:45:30;1.30;;;0.90;;
25497;SDS011;13406;53.380;7.226;2023-07-20T02:47:55;1.40;;;0.80;;
25497;SDS011;13406;53.380;7.226;2023-07-20T02:50:22;2.50;;;1.00;;
25497;SDS011;13406;53.380;7.226;2023-07-20T02:52:47;1.13;;;0.90;;
25497;SDS011;13406;53.380;7.226;2023-07-20T02:55:13;2.70;;;0.80;;
25497;SDS011;13406;53.380;7.226;2023-07-20T02:57:38;1.47;;;0.97;;
25497;SDS011;13406;53.380;7.226;2023-07-20T03:00:04;1.63;;;1.00;;
25497;SDS011;13406;53.380;7.226;2023-07-20T03:02:31;2.70;;;0.83;;
25497;SDS011;13406;53.380;7.226;2023-07-20T03:04:56;2.50;;;1.27;;
25497;SDS011;13406;53.380;7.226;2023-07-20T03:07:26;1.97;;;0.80;;
25497;SDS011;13406;53.380;7.226;2023-07-20T03:09:53;1.67;;;0.87;;
25497;SDS011;13406;53.380;7.226;2023-07-20T03:12:20;1.27;;;0.80;;
25497;SDS011;13406;53.380;7.226;2023-07-20T03:14:45;1.20;;;0.70;;
25497;SDS011;13406;53.380;7.226;2023-07-20T03:17:11;6.10;;;0.80;;
25497;SDS011;13406;53.380;7.226;2023-07-20T03:19:36;3.60;;;0.70;;
25497;SDS011;13406;53.380;7.226;2023-07-20T03:22:02;1.20;;;0.80;;
25497;SDS011;13406;53.380;7.226;2023-07-20T03:24:27;3.53;;;0.90;;
25497;SDS011;13406;53.380;7.226;2023-07-20T03:26:53;1.30;;;0.83;;
25497;SDS011;13406;53.380;7.226;2023-07-20T03:29:18;5.03;;;0.90;;
25497;SDS011;13406;53.380;7.226;2023-07-20T03:31:44;1.20;;;0.70;;
25497;SDS011;13406;53.380;7.226;2023-07-20T03:34:09;2.83;;;0.90;;
25497;SDS011;13406;53.380;7.226;2023-07-20T03:36:34;1.30;;;0.90;;
25497;SDS011;13406;53.380;7.226;2023-07-20T03:39:00;2.03;;;0.80;;
25497;SDS011;13406;53.380;7.226;2023-07-20T03:41:25;2.17;;;0.80;;
25497;SDS011;13406;53.380;7.226;2023-07-20T03:43:51;1.20;;;0.70;;
25497;SDS011;13406;53.380;7.226;2023-07-20T03:46:16;1.33;;;0.93;;
25497;SDS011;13406;53.380;7.226;2023-07-20T03:48:42;2.20;;;0.90;;
25497;SDS011;13406;53.380;7.226;2023-07-20T03:51:07;2.10;;;0.80;;
25497;SDS011;13406;53.380;7.226;2023-07-20T03:53:33;3.33;;;0.80;;
25497;SDS011;13406;53.380;7.226;2023-07-20T03:55:58;5.80;;;1.20;;
25497;SDS011;13406;53.380;7.226;2023-07-20T03:58:24;3.67;;;0.97;;
25497;SDS011;13406;53.380;7.226;2023-07-20T04:00:50;1.23;;;0.80;;
25497;SDS011;13406;53.380;7.226;2023-07-20T04:03:17;1.47;;;0.80;;
25497;SDS011;13406;53.380;7.226;2023-07-20T04:05:43;5.07;;;1.00;;
25497;SDS011;13406;53.380;7.226;2023-07-20T04:08:08;2.90;;;0.80;;
25497;SDS011;13406;53.380;7.226;2023-07-20T04:10:36;3.17;;;1.00;;
25497;SDS011;13406;53.380;7.226;2023-07-20T04:13:01;1.67;;;0.90;;
25497;SDS011;13406;53.380;7.226;2023-07-20T04:15:27;2.00;;;0.90;;
25497;SDS011;13406;53.380;7.226;2023-07-20T04:17:53;1.20;;;0.80;;
25497;SDS011;13406;53.380;7.226;2023-07-20T04:20:18;2.70;;;1.20;;
25497;SDS011;13406;53.380;7.226;2023-07-20T04:22:44;1.40;;;0.63;;
25497;SDS011;13406;53.380;7.226;2023-07-20T04:25:09;1.80;;;0.70;;
25497;SDS011;13406;53.380;7.226;2023-07-20T04:27:35;2.30;;;0.80;;
25497;SDS011;13406;53.380;7.226;2023-07-20T04:30:01;6.07;;;1.30;;
25497;SDS011;13406;53.380;7.226;2023-07-20T04:32:28;1.63;;;0.80;;
25497;SDS011;13406;53.380;7.226;2023-07-20T04:34:54;1.57;;;0.87;;
25497;SDS011;13406;53.380;7.226;2023-07-20T04:37:19;1.73;;;0.80;;
25497;SDS011;13406;53.380;7.226;2023-07-20T04:39:45;1.20;;;0.80;;
25497;SDS011;13406;53.380;7.226;2023-07-20T04:42:10;3.07;;;0.90;;
25497;SDS011;13406;53.380;7.226;2023-07-20T04:44:36;1.10;;;0.80;;
25497;SDS011;13406;53.380;7.226;2023-07-20T04:47:01;4.47;;;1.00;;
25497;SDS011;13406;53.380;7.226;2023-07-20T04:49:28;3.80;;;1.13;;
25497;SDS011;13406;53.380;7.226;2023-07-20T04:51:53;4.43;;;0.90;;
25497;SDS011;13406;53.380;7.226;2023-07-20T04:54:19;3.23;;;0.80;;
25497;SDS011;13406;53.380;7.226;2023-07-20T04:56:45;2.07;;;1.00;;
25497;SDS011;13406;53.380;7.226;2023-07-20T04:59:10;1.53;;;0.70;;
25497;SDS011;13406;53.380;7.226;2023-07-20T05:01:35;2.00;;;0.60;;
25497;SDS011;13406;53.380;7.226;2023-07-20T05:04:01;5.30;;;0.90;;
25497;SDS011;13406;53.380;7.226;2023-07-20T05:06:27;2.90;;;0.77;;
25497;SDS011;13406;53.380;7.226;2023-07-20T05:08:52;1.63;;;0.80;;
25497;SDS011;13406;53.380;7.226;2023-07-20T05:11:18;1.57;;;0.80;;
25497;SDS011;13406;53.380;7.226;2023-07-20T05:13:43;2.43;;;1.00;;
25497;SDS011;13406;53.380;7.226;2023-07-20T05:16:09;1.77;;;0.70;;
25497;SDS011;13406;53.380;7.226;2023-07-20T05:18:34;5.80;;;0.90;;
25497;SDS011;13406;53.380;7.226;2023-07-20T05:21:00;1.20;;;0.80;;
25497;SDS011;13406;53.380;7.226;2023-07-20T05:23:25;2.43;;;1.00;;
25497;SDS011;13406;53.380;7.226;2023-07-20T05:25:57;3.60;;;0.90;;
25497;SDS011;13406;53.380;7.226;2023-07-20T05:28:24;7.23;;;1.10;;
25497;SDS011;13406;53.380;7.226;2023-07-20T05:30:50;2.80;;;0.90;;
25497;SDS011;13406;53.380;7.226;2023-07-20T05:33:21;1.47;;;0.80;;
25497;SDS011;13406;53.380;7.226;2023-07-20T05:35:47;4.87;;;0.90;;
25497;SDS011;13406;53.380;7.226;2023-07-20T05:38:13;2.60;;;0.90;;
25497;SDS011;13406;53.380;7.226;2023-07-20T05:40:41;2.13;;;0.90;;
25497;SDS011;13406;53.380;7.226;2023-07-20T05:43:09;1.30;;;0.90;;
25497;SDS011;13406;53.380;7.226;2023-07-20T05:45:35;2.40;;;0.80;;
25497;SDS011;13406;53.380;7.226;2023-07-20T05:48:01;1.20;;;0.80;;
25497;SDS011;13406;53.380;7.226;2023-07-20T05:50:26;3.87;;;1.00;;
25497;SDS011;13406;53.380;7.226;2023-07-20T05:52:53;2.67;;;0.80;;
25497;SDS011;13406;53.380;7.226;2023-07-20T05:55:19;1.80;;;0.70;;
25497;SDS011;13406;53.380;7.226;2023-07-20T05:57:45;1.70;;;0.83;;
25497;SDS011;13406;53.380;7.226;2023-07-20T06:00:11;3.60;;;0.80;;
25497;SDS011;13406;53.380;7.226;2023-07-20T06:02:38;3.00;;;1.10;;
25497;SDS011;13406;53.380;7.226;2023-07-20T06:05:04;3.03;;;1.60;;
25497;SDS011;13406;53.380;7.226;2023-07-20T06:07:32;3.47;;;1.23;;
25497;SDS011;13406;53.380;7.226;2023-07-20T06:09:57;2.60;;;1.20;;
25497;SDS011;13406;53.380;7.226;2023-07-20T06:12:23;2.97;;;1.20;;
25497;SDS011;13406;53.380;7.226;2023-07-20T06:14:48;5.03;;;1.10;;
25497;SDS011;13406;53.380;7.226;2023-07-20T06:17:14;1.73;;;1.07;;
25497;SDS011;13406;53.380;7.226;2023-07-20T06:19:39;3.87;;;1.10;;
25497;SDS011;13406;53.380;7.226;2023-07-20T06:22:05;4.13;;;1.17;;
25497;SDS011;13406;53.380;7.226;2023-07-20T06:24:30;2.03;;;0.97;;
25497;SDS011;13406;53.380;7.226;2023-07-20T06:26:56;2.37;;;1.07;;
25497;SDS011;13406;53.380;7.226;2023-07-20T06:29:21;2.47;;;1.17;;
25497;SDS011;13406;53.380;7.226;2023-07-20T06:31:47;4.37;;;1.60;;
25497;SDS011;13406;53.380;7.226;2023-07-20T06:34:12;2.20;;;1.47;;
25497;SDS011;13406;53.380;7.226;2023-07-20T06:36:37;5.50;;;2.00;;
25497;SDS011;13406;53.380;7.226;2023-07-20T06:39:03;6.27;;;1.83;;
25497;SDS011;13406;53.380;7.226;2023-07-20T06:41:29;3.23;;;2.10;;
25497;SDS011;13406;53.380;7.226;2023-07-20T06:43:54;5.37;;;1.80;;
25497;SDS011;13406;53.380;7.226;2023-07-20T06:46:26;3.40;;;1.63;;
25497;SDS011;13406;53.380;7.226;2023-07-20T06:48:53;3.80;;;2.23;;
25497;SDS011;13406;53.380;7.226;2023-07-20T06:51:19;5.10;;;2.00;;
25497;SDS011;13406;53.380;7.226;2023-07-20T06:53:45;2.67;;;1.80;;
25497;SDS011;13406;53.380;7.226;2023-07-20T06:56:11;4.20;;;2.00;;
25497;SDS011;13406;53.380;7.226;2023-07-20T06:58:36;3.30;;;2.30;;
25497;SDS011;13406;53.380;7.226;2023-07-20T07:01:05;3.40;;;1.80;;
25497;SDS011;13406;53.380;7.226;2023-07-20T07:03:32;3.50;;;1.73;;
25497;SDS011;13406;53.380;7.226;2023-07-20T07:05:58;4.27;;;2.40;;
25497;SDS011;13406;53.380;7.226;2023-07-20T07:08:24;3.80;;;1.97;;
25497;SDS011;13406;53.380;7.226;2023-07-20T07:10:50;3.43;;;2.00;;
25497;SDS011;13406;53.380;7.226;2023-07-20T07:13:15;3.07;;;2.10;;
25497;SDS011;13406;53.380;7.226;2023-07-20T07:15:40;4.67;;;2.30;;
25497;SDS011;13406;53.380;7.226;2023-07-20T07:18:06;3.13;;;1.70;;
25497;SDS011;13406;53.380;7.226;2023-07-20T07:20:31;2.50;;;1.60;;
25497;SDS011;13406;53.380;7.226;2023-07-20T07:22:57;3.83;;;1.70;;
25497;SDS011;13406;53.380;7.226;2023-07-20T07:25:22;2.83;;;1.30;;
25497;SDS011;13406;53.380;7.226;2023-07-20T07:27:48;4.70;;;1.70;;
25497;SDS011;13406;53.380;7.226;2023-07-20T07:30:13;4.60;;;1.60;;
25497;SDS011;13406;53.380;7.226;2023-07-20T07:32:39;4.40;;;2.10;;
25497;SDS011;13406;53.380;7.226;2023-07-20T07:35:04;4.60;;;1.90;;
25497;SDS011;13406;53.380;7.226;2023-07-20T07:37:30;2.90;;;1.50;;
25497;SDS011;13406;53.380;7.226;2023-07-20T07:39:56;2.80;;;1.30;;
25497;SDS011;13406;53.380;7.226;2023-07-20T07:42:22;2.80;;;1.10;;
25497;SDS011;13406;53.380;7.226;2023-07-20T07:44:48;3.47;;;1.30;;
25497;SDS011;13406;53.380;7.226;2023-07-20T07:47:13;2.23;;;1.00;;
25497;SDS011;13406;53.380;7.226;2023-07-20T07:49:39;2.17;;;1.00;;
25497;SDS011;13406;53.380;7.226;2023-07-20T07:52:05;3.00;;;1.27;;
25497;SDS011;13406;53.380;7.226;2023-07-20T07:54:31;3.57;;;0.87;;
25497;SDS011;13406;53.380;7.226;2023-07-20T07:56:56;5.50;;;1.10;;
25497;SDS011;13406;53.380;7.226;2023-07-20T07:59:22;3.77;;;1.17;;
25497;SDS011;13406;53.380;7.226;2023-07-20T08:01:47;2.93;;;0.83;;
25497;SDS011;13406;53.380;7.226;2023-07-20T08:04:13;1.83;;;0.97;;
25497;SDS011;13406;53.380;7.226;2023-07-20T08:06:38;3.27;;;0.90;;
25497;SDS011;13406;53.380;7.226;2023-07-20T08:09:04;2.30;;;0.90;;
25497;SDS011;13406;53.380;7.226;2023-07-20T08:11:29;1.27;;;0.67;;
25497;SDS011;13406;53.380;7.226;2023-07-20T08:13:56;1.63;;;0.70;;
25497;SDS011;13406;53.380;7.226;2023-07-20T08:16:22;5.80;;;1.00;;
25497;SDS011;13406;53.380;7.226;2023-07-20T08:18:47;2.70;;;0.93;;
25497;SDS011;13406;53.380;7.226;2023-07-20T08:21:12;1.37;;;0.73;;
25497;SDS011;13406;53.380;7.226;2023-07-20T08:23:38;1.40;;;0.77;;
25497;SDS011;13406;53.380;7.226;2023-07-20T08:26:03;2.40;;;1.00;;
25497;SDS011;13406;53.380;7.226;2023-07-20T08:28:29;1.10;;;0.63;;
25497;SDS011;13406;53.380;7.226;2023-07-20T08:30:54;2.27;;;1.00;;
25497;SDS011;13406;53.380;7.226;2023-07-20T08:33:20;2.40;;;0.93;;
25497;SDS011;13406;53.380;7.226;2023-07-20T08:35:46;3.33;;;0.80;;
25497;SDS011;13406;53.380;7.226;2023-07-20T08:38:11;1.47;;;0.70;;
25497;SDS011;13406;53.380;7.226;2023-07-20T08:40:41;1.40;;;0.70;;
25497;SDS011;13406;53.380;7.226;2023-07-20T08:43:10;2.20;;;0.80;;
25497;SDS011;13406;53.380;7.226;2023-07-20T08:45:36;2.63;;;0.80;;
25497;SDS011;13406;53.380;7.226;2023-07-20T08:48:05;1.00;;;0.70;;
25497;SDS011;13406;53.380;7.226;2023-07-20T08:50:31;2.70;;;1.10;;
25497;SDS011;13406;53.380;7.226;2023-07-20T08:52:58;1.77;;;0.90;;
25497;SDS011;13406;53.380;7.226;2023-07-20T08:55:24;1.40;;;0.70;;
25497;SDS011;13406;53.380;7.226;2023-07-20T08:57:55;2.77;;;1.00;;
25497;SDS011;13406;53.380;7.226;2023-07-20T09:00:21;2.87;;;0.90;;
25497;SDS011;13406;53.380;7.226;2023-07-20T09:02:49;1.57;;;0.80;;
25497;SDS011;13406;53.380;7.226;2023-07-20T09:05:17;2.03;;;0.77;;
25497;SDS011;13406;53.380;7.226;2023-07-20T09:07:43;1.73;;;1.00;;
25497;SDS011;13406;53.380;7.226;2023-07-20T09:10:09;1.70;;;0.80;;
25497;SDS011;13406;53.380;7.226;2023-07-20T09:12:39;2.37;;;0.90;;
25497;SDS011;13406;53.380;7.226;2023-07-20T09:15:05;3.70;;;0.90;;
25497;SDS011;13406;53.380;7.226;2023-07-20T09:17:33;2.57;;;0.70;;
25497;SDS011;13406;53.380;7.226;2023-07-20T09:20:02;2.00;;;0.70;;
25497;SDS011;13406;53.380;7.226;2023-07-20T09:22:35;2.37;;;1.00;;
25497;SDS011;13406;53.380;7.226;2023-07-20T09:25:08;1.57;;;0.80;;
25497;SDS011;13406;53.380;7.226;2023-07-20T09:27:39;2.20;;;0.90;;
25497;SDS011;13406;53.380;7.226;2023-07-20T09:30:05;2.67;;;0.77;;
25497;SDS011;13406;53.380;7.226;2023-07-20T09:32:48;4.60;;;0.90;;
25497;SDS011;13406;53.380;7.226;2023-07-20T09:35:22;2.13;;;0.80;;
25497;SDS011;13406;53.380;7.226;2023-07-20T09:37:53;1.13;;;0.70;;
25497;SDS011;13406;53.380;7.226;2023-07-20T09:40:19;2.97;;;0.80;;
25497;SDS011;13406;53.380;7.226;2023-07-20T09:42:46;3.73;;;1.37;;
25497;SDS011;13406;53.380;7.226;2023-07-20T09:45:12;1.43;;;0.73;;
25497;SDS011;13406;53.380;7.226;2023-07-20T09:47:38;1.70;;;0.80;;
25497;SDS011;13406;53.380;7.226;2023-07-20T09:50:04;2.53;;;0.90;;
25497;SDS011;13406;53.380;7.226;2023-07-20T09:52:35;3.13;;;0.97;;
25497;SDS011;13406;53.380;7.226;2023-07-20T09:55:06;1.90;;;0.70;;
25497;SDS011;13406;53.380;7.226;2023-07-20T09:57:36;1.57;;;0.87;;
25497;SDS011;13406;53.380;7.226;2023-07-20T10:00:06;1.83;;;0.70;;
25497;SDS011;13406;53.380;7.226;2023-07-20T10:02:41;2.20;;;0.80;;
25497;SDS011;13406;53.380;7.226;2023-07-20T10:05:08;1.63;;;0.90;;
25497;SDS011;13406;53.380;7.226;2023-07-20T10:07:39;3.23;;;0.73;;
25497;SDS011;13406;53.380;7.226;2023-07-20T10:10:16;3.90;;;0.93;;
25497;SDS011;13406;53.380;7.226;2023-07-20T10:12:44;1.73;;;0.80;;
25497;SDS011;13406;53.380;7.226;2023-07-20T10:15:18;3.00;;;0.90;;
25497;SDS011;13406;53.380;7.226;2023-07-20T10:20:33;1.43;;;0.70;;
25497;SDS011;13406;53.380;7.226;2023-07-20T10:23:01;2.20;;;0.80;;
25497;SDS011;13406;53.380;7.226;2023-07-20T10:25:30;1.77;;;1.00;;
25497;SDS011;13406;53.380;7.226;2023-07-20T10:27:56;1.50;;;0.77;;
25497;SDS011;13406;53.380;7.226;2023-07-20T10:30:22;2.93;;;1.00;;
25497;SDS011;13406;53.380;7.226;2023-07-20T10:32:48;2.93;;;1.00;;
25497;SDS011;13406;53.380;7.226;2023-07-20T10:35:15;1.60;;;1.00;;
25497;SDS011;13406;53.380;7.226;2023-07-20T10:37:54;3.67;;;1.23;;
25497;SDS011;13406;53.380;7.226;2023-07-20T10:40:29;2.83;;;0.97;;
25497;SDS011;13406;53.380;7.226;2023-07-20T10:43:02;3.97;;;1.13;;
25497;SDS011;13406;53.380;7.226;2023-07-20T10:45:48;2.53;;;0.97;;
25497;SDS011;13406;53.380;7.226;2023-07-20T10:49:02;2.83;;;0.80;;
25497;SDS011;13406;53.380;7.226;2023-07-20T10:51:29;4.30;;;1.10;;
25497;SDS011;13406;53.380;7.226;2023-07-20T10:53:59;4.87;;;1.10;;
25497;SDS011;13406;53.380;7.226;2023-07-20T10:56:27;1.73;;;0.80;;
25497;SDS011;13406;53.380;7.226;2023-07-20T10:58:59;2.60;;;0.80;;
25497;SDS011;13406;53.380;7.226;2023-07-20T11:01:29;2.20;;;0.83;;
25497;SDS011;13406;53.380;7.226;2023-07-20T11:03:57;1.67;;;0.80;;
25497;SDS011;13406;53.380;7.226;2023-07-20T11:11:29;2.27;;;0.90;;
25497;SDS011;13406;53.380;7.226;2023-07-20T11:13:57;1.47;;;0.90;;
25497;SDS011;13406;53.380;7.226;2023-07-20T11:16:45;1.53;;;0.70;;
25497;SDS011;13406;53.380;7.226;2023-07-20T11:19:17;2.40;;;0.93;;
25497;SDS011;13406;53.380;7.226;2023-07-20T11:24:23;1.93;;;0.70;;
25497;SDS011;13406;53.380;7.226;2023-07-20T11:26:50;3.57;;;1.20;;
25497;SDS011;13406;53.380;7.226;2023-07-20T11:29:17;4.20;;;1.20;;
25497;SDS011;13406;53.380;7.226;2023-07-20T11:31:47;0.97;;;0.60;;
25497;SDS011;13406;53.380;7.226;2023-07-20T11:34:14;2.30;;;1.00;;
25497;SDS011;13406;53.380;7.226;2023-07-20T11:36:41;2.13;;;0.90;;
25497;SDS011;13406;53.380;7.226;2023-07-20T11:39:09;2.10;;;0.97;;
25497;SDS011;13406;53.380;7.226;2023-07-20T11:41:35;2.00;;;0.80;;
25497;SDS011;13406;53.380;7.226;2023-07-20T11:44:01;3.70;;;0.90;;
25497;SDS011;13406;53.380;7.226;2023-07-20T11:46:27;2.70;;;1.00;;
25497;SDS011;13406;53.380;7.226;2023-07-20T11:49:00;2.77;;;1.10;;
25497;SDS011;13406;53.380;7.226;2023-07-20T11:51:26;3.07;;;0.83;;
25497;SDS011;13406;53.380;7.226;2023-07-20T11:53:53;1.60;;;0.77;;
25497;SDS011;13406;53.380;7.226;2023-07-20T11:56:19;3.43;;;1.00;;
25497;SDS011;13406;53.380;7.226;2023-07-20T11:58:45;5.77;;;1.00;;
25497;SDS011;13406;53.380;7.226;2023-07-20T12:01:14;2.17;;;0.77;;
25497;SDS011;13406;53.380;7.226;2023-07-20T12:03:43;6.40;;;0.80;;
25497;SDS011;13406;53.380;7.226;2023-07-20T12:06:09;1.90;;;0.83;;
25497;SDS011;13406;53.380;7.226;2023-07-20T12:08:39;3.07;;;0.90;;
25497;SDS011;13406;53.380;7.226;2023-07-20T12:11:07;2.00;;;0.80;;
25497;SDS011;13406;53.380;7.226;2023-07-20T12:13:41;6.50;;;0.83;;
25497;SDS011;13406;53.380;7.226;2023-07-20T12:16:14;1.80;;;0.90;;
25497;SDS011;13406;53.380;7.226;2023-07-20T12:18:42;1.77;;;0.67;;
25497;SDS011;13406;53.380;7.226;2023-07-20T12:21:08;1.43;;;0.80;;
25497;SDS011;13406;53.380;7.226;2023-07-20T12:23:35;2.77;;;1.00;;
25497;SDS011;13406;53.380;7.226;2023-07-20T12:26:03;1.60;;;0.80;;
25497;SDS011;13406;53.380;7.226;2023-07-20T12:28:31;1.53;;;0.77;;
25497;SDS011;13406;53.380;7.226;2023-07-20T12:30:57;3.80;;;1.00;;
25497;SDS011;13406;53.380;7.226;2023-07-20T12:33:22;3.47;;;0.80;;
25497;SDS011;13406;53.380;7.226;2023-07-20T12:35:48;1.10;;;0.80;;
25497;SDS011;13406;53.380;7.226;2023-07-20T12:38:15;1.10;;;0.70;;
25497;SDS011;13406;53.380;7.226;2023-07-20T12:40:41;1.97;;;0.87;;
25497;SDS011;13406;53.380;7.226;2023-07-20T12:43:06;3.00;;;0.80;;
25497;SDS011;13406;53.380;7.226;2023-07-20T12:45:32;2.47;;;0.90;;
25497;SDS011;13406;53.380;7.226;2023-07-20T12:47:58;4.00;;;0.80;;
25497;SDS011;13406;53.380;7.226;2023-07-20T12:50:24;2.73;;;0.83;;
25497;SDS011;13406;53.380;7.226;2023-07-20T12:52:50;4.43;;;1.07;;
25497;SDS011;13406;53.380;7.226;2023-07-20T12:55:15;3.73;;;1.10;;
25497;SDS011;13406;53.380;7.226;2023-07-20T12:57:41;1.77;;;0.90;;
25497;SDS011;13406;53.380;7.226;2023-07-20T13:00:08;4.90;;;1.00;;
25497;SDS011;13406;53.380;7.226;2023-07-20T13:02:34;2.07;;;1.10;;
25497;SDS011;13406;53.380;7.226;2023-07-20T13:05:01;1.30;;;0.70;;
25497;SDS011;13406;53.380;7.226;2023-07-20T13:07:34;2.07;;;1.37;;
25497;SDS011;13406;53.380;7.226;2023-07-20T13:10:01;1.70;;;0.90;;
25497;SDS011;13406;53.380;7.226;2023-07-20T13:12:29;2.43;;;1.07;;
25497;SDS011;13406;53.380;7.226;2023-07-20T13:14:56;2.30;;;0.70;;
25497;SDS011;13406;53.380;7.226;2023-07-20T13:17:22;1.73;;;0.90;;
25497;SDS011;13406;53.380;7.226;2023-07-20T13:19:48;1.40;;;0.70;;
25497;SDS011;13406;53.380;7.226;2023-07-20T13:22:14;1.93;;;0.70;;
25497;SDS011;13406;53.380;7.226;2023-07-20T13:24:40;1.80;;;0.80;;
25497;SDS011;13406;53.380;7.226;2023-07-20T13:27:06;1.80;;;0.70;;
25497;SDS011;13406;53.380;7.226;2023-07-20T13:29:31;2.33;;;0.80;;
25497;SDS011;13406;53.380;7.226;2023-07-20T13:31:57;1.63;;;0.90;;
25497;SDS011;13406;53.380;7.226;2023-07-20T13:34:23;2.27;;;0.80;;
25497;SDS011;13406;53.380;7.226;2023-07-20T13:36:50;2.50;;;1.03;;
25497;SDS011;13406;53.380;7.226;2023-07-20T13:39:15;1.37;;;0.70;;
25497;SDS011;13406;53.380;7.226;2023-07-20T13:41:41;2.30;;;0.73;;
25497;SDS011;13406;53.380;7.226;2023-07-20T13:44:07;1.17;;;0.80;;
25497;SDS011;13406;53.380;7.226;2023-07-20T13:46:32;1.83;;;0.80;;
25497;SDS011;13406;53.380;7.226;2023-07-20T13:48:58;1.40;;;0.90;;
25497;SDS011;13406;53.380;7.226;2023-07-20T13:51:23;1.43;;;0.70;;
25497;SDS011;13406;53.380;7.226;2023-07-20T13:53:48;1.37;;;0.60;;
25497;SDS011;13406;53.380;7.226;2023-07-20T13:56:14;1.40;;;0.70;;
25497;SDS011;13406;53.380;7.226;2023-07-20T13:58:39;1.83;;;0.70;;
25497;SDS011;13406;53.380;7.226;2023-07-20T14:01:05;1.97;;;0.70;;
25497;SDS011;13406;53.380;7.226;2023-07-20T14:03:30;1.67;;;0.80;;
25497;SDS011;13406;53.380;7.226;2023-07-20T14:05:56;1.83;;;0.90;;
25497;SDS011;13406;53.380;7.226;2023-07-20T14:08:21;1.93;;;0.70;;
25497;SDS011;13406;53.380;7.226;2023-07-20T14:10:47;2.07;;;0.83;;
25497;SDS011;13406;53.380;7.226;2023-07-20T14:13:13;2.20;;;0.80;;
25497;SDS011;13406;53.380;7.226;2023-07-20T14:15:39;1.23;;;0.73;;
25497;SDS011;13406;53.380;7.226;2023-07-20T14:18:05;2.57;;;1.10;;
25497;SDS011;13406;53.380;7.226;2023-07-20T14:20:30;2.50;;;0.90;;
25497;SDS011;13406;53.380;7.226;2023-07-20T14:22:56;2.30;;;0.97;;
25497;SDS011;13406;53.380;7.226;2023-07-20T14:25:21;1.57;;;0.80;;
25497;SDS011;13406;53.380;7.226;2023-07-20T14:27:46;1.03;;;0.70;;
25497;SDS011;13406;53.380;7.226;2023-07-20T14:30:12;1.63;;;0.80;;
25497;SDS011;13406;53.380;7.226;2023-07-20T14:32:38;1.87;;;0.80;;
25497;SDS011;13406;53.380;7.226;2023-07-20T14:35:04;1.53;;;0.90;;
25497;SDS011;13406;53.380;7.226;2023-07-20T14:37:30;2.20;;;1.13;;
25497;SDS011;13406;53.380;7.226;2023-07-20T14:39:55;1.00;;;0.73;;
25497;SDS011;13406;53.380;7.226;2023-07-20T14:42:21;2.17;;;1.00;;
25497;SDS011;13406;53.380;7.226;2023-07-20T14:44:46;1.47;;;0.77;;
25497;SDS011;13406;53.380;7.226;2023-07-20T14:47:11;1.53;;;0.70;;
25497;SDS011;13406;53.380;7.226;2023-07-20T14:49:37;1.40;;;0.90;;
25497;SDS011;13406;53.380;7.226;2023-07-20T14:52:03;1.80;;;0.83;;
25497;SDS011;13406;53.380;7.226;2023-07-20T14:54:29;1.23;;;1.00;;
25497;SDS011;13406;53.380;7.226;2023-07-20T14:56:54;1.47;;;0.87;;
25497;SDS011;13406;53.380;7.226;2023-07-20T14:59:21;2.30;;;0.83;;
25497;SDS011;13406;53.380;7.226;2023-07-20T15:01:46;1.43;;;0.73;;
25497;SDS011;13406;53.380;7.226;2023-07-20T15:04:12;1.20;;;0.70;;
25497;SDS011;13406;53.380;7.226;2023-07-20T15:06:39;1.63;;;0.90;;
25497;SDS011;13406;53.380;7.226;2023-07-20T15:09:04;2.40;;;0.97;;
25497;SDS011;13406;53.380;7.226;2023-07-20T15:11:30;1.90;;;0.80;;